Time;durP1;ratioP1;P1;durP2;ratioP2;P2;SDS_P1;SDS_P2;PMS_P1;PMS_P2;Temp;Humidity;BMP_temperature;BMP_pressure;BME280_temperature;BME280_humidity;BME280_pressure;Samples;Min_cycle;Max_cycle;Signal;HPM_P1;HPM_P2
2022/08/01 00:01:12;;;;;;;3.72;1.80;;;;;;;;;;5035363;28;20136;-58
2022/08/01 00:03:42;;;;;;;6.20;2.10;;;;;;;;;;5034268;28;20053;-55
2022/08/01 00:06:11;;;;;;;5.07;2.30;;;;;;;;;;5035230;28;20068;-55
2022/08/01 00:08:38;;;;;;;4.15;1.90;;;;;;;;;;5034989;28;20119;-57
2022/08/01 00:11:22;;;;;;;2.78;1.65;;;;;;;;;;5034373;28;20053;-57
2022/08/01 00:13:49;;;;;;;3.20;1.88;;;;;;;;;;5035085;28;20115;-57
2022/08/01 00:16:18;;;;;;;4.03;2.10;;;;;;;;;;5035048;28;20053;-58
2022/08/01 00:18:46;;;;;;;3.95;1.85;;;;;;;;;;5035001;28;20080;-58
2022/08/01 00:21:13;;;;;;;4.72;2.38;;;;;;;;;;5034979;28;20068;-58
2022/08/01 00:26:25;;;;;;;4.15;2.17;;;;;;;;;;5034835;28;20064;-58
2022/08/01 00:28:55;;;;;;;4.22;2.15;;;;;;;;;;5034861;28;20049;-58
2022/08/01 00:31:25;;;;;;;4.50;2.47;;;;;;;;;;5034818;28;20057;-58
2022/08/01 00:36:32;;;;;;;2.78;1.98;;;;;;;;;;5031663;28;20073;-58
2022/08/01 00:39:02;;;;;;;3.13;1.98;;;;;;;;;;5034774;28;20042;-58
2022/08/01 00:41:34;;;;;;;3.97;1.83;;;;;;;;;;5034675;28;20057;-57
2022/08/01 00:44:07;;;;;;;3.63;2.00;;;;;;;;;;5034549;28;20053;-58
2022/08/01 00:46:37;;;;;;;4.25;2.10;;;;;;;;;;5034376;28;20048;-58
2022/08/01 00:49:07;;;;;;;4.65;2.35;;;;;;;;;;5034750;28;20049;-58
2022/08/01 00:51:37;;;;;;;4.13;2.28;;;;;;;;;;5034264;28;20075;-58
2022/08/01 00:54:05;;;;;;;3.85;2.10;;;;;;;;;;5033705;28;20528;-58
2022/08/01 00:56:47;;;;;;;7.07;2.33;;;;;;;;;;5034268;28;20053;-57
2022/08/01 00:59:14;;;;;;;5.13;2.30;;;;;;;;;;5034282;28;20050;-58
2022/08/01 01:01:44;;;;;;;3.95;2.33;;;;;;;;;;5033751;28;20136;-58
2022/08/01 01:04:13;;;;;;;3.75;2.08;;;;;;;;;;5034216;28;20068;-57
2022/08/01 01:06:45;;;;;;;2.97;2.08;;;;;;;;;;5033917;28;20072;-58
2022/08/01 01:09:17;;;;;;;4.45;2.20;;;;;;;;;;5034050;28;20060;-56
2022/08/01 01:11:49;;;;;;;3.97;2.00;;;;;;;;;;5034429;28;20064;-57
2022/08/01 01:14:22;;;;;;;4.57;2.42;;;;;;;;;;5034147;28;20053;-57
2022/08/01 01:16:50;;;;;;;4.03;2.50;;;;;;;;;;5033626;28;20049;-57
2022/08/01 01:19:21;;;;;;;4.50;2.20;;;;;;;;;;5033634;28;20056;-57
2022/08/01 01:21:58;;;;;;;4.75;2.20;;;;;;;;;;5033619;28;20057;-57
2022/08/01 01:24:34;;;;;;;4.10;2.28;;;;;;;;;;5033746;28;20140;-57
2022/08/01 01:27:06;;;;;;;3.33;2.00;;;;;;;;;;5033829;28;20045;-57
2022/08/01 01:29:40;;;;;;;5.60;2.75;;;;;;;;;;5033466;28;20060;-57
2022/08/01 01:32:13;;;;;;;3.75;2.20;;;;;;;;;;5033430;28;20140;-57
2022/08/01 01:34:43;;;;;;;4.28;2.55;;;;;;;;;;5033544;28;20115;-57
2022/08/01 01:37:14;;;;;;;6.15;2.30;;;;;;;;;;5033752;28;20064;-56
2022/08/01 01:39:43;;;;;;;4.22;2.05;;;;;;;;;;5033405;28;20704;-56
2022/08/01 01:42:12;;;;;;;4.95;2.15;;;;;;;;;;5033474;28;20490;-56
2022/08/01 01:44:44;;;;;;;3.60;1.90;;;;;;;;;;5033645;28;20049;-56
2022/08/01 01:50:03;;;;;;;3.38;1.88;;;;;;;;;;5032977;28;20041;-59
2022/08/01 01:52:30;;;;;;;3.53;2.45;;;;;;;;;;5046435;28;20090;-59
2022/08/01 01:54:59;;;;;;;6.88;2.22;;;;;;;;;;5052240;28;20458;-58
2022/08/01 01:57:28;;;;;;;3.33;2.20;;;;;;;;;;5048147;28;20414;-59
2022/08/01 02:00:06;;;;;;;4.57;2.78;;;;;;;;;;5033080;28;20110;-58
2022/08/01 02:02:34;;;;;;;6.43;2.03;;;;;;;;;;5032454;28;20137;-59
2022/08/01 02:05:02;;;;;;;3.40;1.80;;;;;;;;;;5032923;28;20494;-57
2022/08/01 02:07:32;;;;;;;6.45;2.70;;;;;;;;;;5033358;28;20064;-58
2022/08/01 02:10:01;;;;;;;4.15;2.20;;;;;;;;;;5033312;28;20053;-58
2022/08/01 02:12:37;;;;;;;4.45;2.50;;;;;;;;;;5032534;28;20141;-58
2022/08/01 02:15:15;;;;;;;3.10;1.85;;;;;;;;;;5033133;28;20057;-59
2022/08/01 02:17:52;;;;;;;4.00;2.53;;;;;;;;;;5033123;28;20076;-57
2022/08/01 02:20:22;;;;;;;3.65;2.25;;;;;;;;;;5033085;28;20049;-58
2022/08/01 02:22:51;;;;;;;3.33;2.33;;;;;;;;;;5033148;28;20103;-59
2022/08/01 02:25:24;;;;;;;5.85;2.30;;;;;;;;;;5032835;28;20128;-58
2022/08/01 02:27:56;;;;;;;3.28;1.98;;;;;;;;;;5032564;28;20058;-59
2022/08/01 02:30:30;;;;;;;4.18;2.28;;;;;;;;;;5032311;28;20397;-58
2022/08/01 02:33:04;;;;;;;3.45;1.92;;;;;;;;;;5032637;28;20053;-59
2022/08/01 02:35:38;;;;;;;5.40;2.30;;;;;;;;;;5033048;28;20111;-56
2022/08/01 02:38:06;;;;;;;3.55;1.75;;;;;;;;;;5032432;28;20374;-58
2022/08/01 02:40:36;;;;;;;3.22;1.90;;;;;;;;;;5032803;28;20045;-56
2022/08/01 02:43:06;;;;;;;3.10;1.60;;;;;;;;;;5032483;28;20053;-55
2022/08/01 02:45:38;;;;;;;3.28;1.75;;;;;;;;;;5032611;28;20053;-57
2022/08/01 02:48:08;;;;;;;4.47;1.50;;;;;;;;;;5032049;28;20468;-55
2022/08/01 02:50:36;;;;;;;3.10;1.67;;;;;;;;;;5032173;28;20053;-58
2022/08/01 02:53:07;;;;;;;3.63;1.83;;;;;;;;;;5032300;28;20092;-58
2022/08/01 02:55:36;;;;;;;4.05;1.85;;;;;;;;;;5032310;28;20481;-58
2022/08/01 02:58:06;;;;;;;3.22;2.10;;;;;;;;;;5032764;28;20064;-58
2022/08/01 03:00:41;;;;;;;5.68;1.70;;;;;;;;;;5029876;28;20417;-59
2022/08/01 03:03:19;;;;;;;2.80;1.65;;;;;;;;;;5012744;28;20160;-58
2022/08/01 03:05:48;;;;;;;5.57;1.90;;;;;;;;;;5023464;28;20045;-59
2022/08/01 03:08:25;;;;;;;2.47;1.77;;;;;;;;;;5036201;28;20168;-59
2022/08/01 03:10:55;;;;;;;2.58;1.70;;;;;;;;;;5036381;28;20049;-58
2022/08/01 03:13:24;;;;;;;4.47;2.35;;;;;;;;;;5036063;28;20386;-58
2022/08/01 03:16:05;;;;;;;3.40;1.73;;;;;;;;;;5036377;28;20073;-58
2022/08/01 03:18:34;;;;;;;2.67;1.48;;;;;;;;;;5036219;28;20060;-55
2022/08/01 03:21:02;;;;;;;2.83;1.70;;;;;;;;;;5035918;28;20542;-59
2022/08/01 03:23:31;;;;;;;4.10;2.00;;;;;;;;;;5035888;28;20081;-58
2022/08/01 03:25:59;;;;;;;5.13;2.35;;;;;;;;;;5016437;28;20058;-58
2022/08/01 03:28:35;;;;;;;6.45;2.03;;;;;;;;;;5016064;28;20465;-57
2022/08/01 03:31:07;;;;;;;3.05;1.63;;;;;;;;;;5015883;28;20586;-57
2022/08/01 03:33:37;;;;;;;3.30;1.63;;;;;;;;;;5034168;28;20128;-58
2022/08/01 03:36:14;;;;;;;4.53;1.42;;;;;;;;;;5035985;28;20111;-56
2022/08/01 03:38:46;;;;;;;4.10;1.90;;;;;;;;;;5035797;28;20057;-57
2022/08/01 03:41:15;;;;;;;3.40;1.75;;;;;;;;;;5035582;28;20045;-55
2022/08/01 03:43:48;;;;;;;4.95;1.88;;;;;;;;;;5035268;28;20049;-57
2022/08/01 03:46:24;;;;;;;3.08;1.70;;;;;;;;;;5035438;28;20139;-58
2022/08/01 03:48:54;;;;;;;2.67;1.50;;;;;;;;;;5035682;28;20045;-58
2022/08/01 03:51:22;;;;;;;2.05;1.38;;;;;;;;;;5035664;28;20042;-58
2022/08/01 03:54:00;;;;;;;4.40;1.30;;;;;;;;;;5034857;28;20060;-59
2022/08/01 03:56:30;;;;;;;3.40;1.70;;;;;;;;;;5035597;28;20139;-59
2022/08/01 03:58:59;;;;;;;6.00;1.48;;;;;;;;;;5035566;28;20060;-58
2022/08/01 04:01:35;;;;;;;2.97;1.30;;;;;;;;;;5035082;28;20049;-59
2022/08/01 04:04:04;;;;;;;4.18;1.20;;;;;;;;;;5035197;28;20758;-59
2022/08/01 04:06:36;;;;;;;2.58;1.20;;;;;;;;;;5034846;28;20447;-59
2022/08/01 04:09:06;;;;;;;2.08;1.17;;;;;;;;;;5035508;28;20146;-59
2022/08/01 04:11:34;;;;;;;27.88;2.53;;;;;;;;;;5035228;28;20092;-59
2022/08/01 04:14:03;;;;;;;23.15;2.78;;;;;;;;;;5035437;28;20056;-59
2022/08/01 04:16:39;;;;;;;4.47;1.30;;;;;;;;;;5030542;28;20386;-57
2022/08/01 04:19:07;;;;;;;3.35;1.35;;;;;;;;;;5034535;28;20498;-58
2022/08/01 04:21:37;;;;;;;2.15;1.30;;;;;;;;;;5034704;28;20077;-58
2022/08/01 04:24:12;;;;;;;4.80;1.40;;;;;;;;;;5035090;28;20056;-59
2022/08/01 04:26:43;;;;;;;3.30;1.33;;;;;;;;;;5034976;28;20049;-59
2022/08/01 04:29:12;;;;;;;3.65;1.50;;;;;;;;;;5034757;28;20729;-58
2022/08/01 04:31:49;;;;;;;2.60;1.08;;;;;;;;;;5034808;28;20049;-59
2022/08/01 04:34:25;;;;;;;6.40;1.45;;;;;;;;;;5034648;28;20492;-58
2022/08/01 04:36:53;;;;;;;6.78;1.60;;;;;;;;;;5015010;28;20112;-59
2022/08/01 04:39:27;;;;;;;7.43;1.42;;;;;;;;;;5014613;28;20459;-59
2022/08/01 04:41:57;;;;;;;4.10;1.50;;;;;;;;;;5014637;28;20459;-59
2022/08/01 04:44:27;;;;;;;5.50;1.30;;;;;;;;;;5015014;28;20109;-59
2022/08/01 04:46:57;;;;;;;2.47;1.20;;;;;;;;;;5014718;28;20050;-58
2022/08/01 04:49:24;;;;;;;3.97;1.38;;;;;;;;;;5014919;28;20153;-58
2022/08/01 04:51:57;;;;;;;5.57;1.38;;;;;;;;;;5014448;28;20406;-59
2022/08/01 04:54:27;;;;;;;9.48;1.50;;;;;;;;;;5014568;28;20104;-58
2022/08/01 04:56:59;;;;;;;62.75;5.65;;;;;;;;;;5014624;28;20053;-59
2022/08/01 04:59:49;;;;;;;3.75;1.35;;;;;;;;;;5014746;28;20054;-59
2022/08/01 05:02:28;;;;;;;18.58;1.75;;;;;;;;;;5027589;28;20123;-59
2022/08/01 05:04:59;;;;;;;3.70;1.40;;;;;;;;;;5034257;28;20072;-58
2022/08/01 05:07:29;;;;;;;5.93;1.42;;;;;;;;;;5034032;28;20068;-59
2022/08/01 05:09:57;;;;;;;9.20;1.70;;;;;;;;;;5033929;28;20084;-58
2022/08/01 05:12:26;;;;;;;14.20;1.80;;;;;;;;;;5033395;28;20049;-58
2022/08/01 05:14:56;;;;;;;3.33;1.35;;;;;;;;;;5033906;28;20053;-57
2022/08/01 05:17:37;;;;;;;3.80;1.30;;;;;;;;;;5034102;28;20052;-58
2022/08/01 05:20:06;;;;;;;3.22;1.17;;;;;;;;;;5034116;28;20156;-56
2022/08/01 05:22:36;;;;;;;2.80;1.30;;;;;;;;;;5033813;28;20049;-56
2022/08/01 05:25:07;;;;;;;54.80;4.28;;;;;;;;;;5033628;28;20144;-57
2022/08/01 05:27:39;;;;;;;54.58;5.57;;;;;;;;;;5031925;28;20054;-58
2022/08/01 05:30:08;;;;;;;5.90;1.30;;;;;;;;;;5032893;28;20054;-59
2022/08/01 05:32:43;;;;;;;9.35;1.60;;;;;;;;;;5033387;28;20107;-59
2022/08/01 05:35:12;;;;;;;6.25;1.40;;;;;;;;;;5033127;28;20474;-56
2022/08/01 05:37:40;;;;;;;11.82;1.55;;;;;;;;;;5033048;28;20054;-55
2022/08/01 05:40:10;;;;;;;4.28;1.33;;;;;;;;;;5033656;28;20128;-58
2022/08/01 05:42:40;;;;;;;8.60;1.92;;;;;;;;;;5033411;28;20064;-59
2022/08/01 05:45:09;;;;;;;4.32;1.27;;;;;;;;;;5033390;28;20057;-58
2022/08/01 05:47:50;;;;;;;5.60;1.42;;;;;;;;;;5033025;28;20088;-59
2022/08/01 05:53:00;;;;;;;20.75;2.78;;;;;;;;;;5032913;28;20045;-58
2022/08/01 05:55:28;;;;;;;4.78;1.17;;;;;;;;;;5032873;28;20449;-59
2022/08/01 05:57:58;;;;;;;6.28;1.33;;;;;;;;;;5033270;28;20099;-59
2022/08/01 06:00:28;;;;;;;2.75;1.40;;;;;;;;;;5033232;28;20057;-59
2022/08/01 06:03:03;;;;;;;18.27;1.75;;;;;;;;;;5032671;28;20057;-58
2022/08/01 06:05:33;;;;;;;4.15;1.35;;;;;;;;;;5033004;28;20064;-59
2022/08/01 06:08:01;;;;;;;9.00;1.30;;;;;;;;;;5032835;28;20492;-58
2022/08/01 06:10:31;;;;;;;5.13;1.50;;;;;;;;;;5033181;28;20054;-58
2022/08/01 06:13:02;;;;;;;11.10;1.65;;;;;;;;;;5032972;28;20068;-56
2022/08/01 06:15:31;;;;;;;8.82;1.73;;;;;;;;;;5021263;28;20060;-51
2022/08/01 06:18:15;;;;;;;10.60;1.73;;;;;;;;;;5027649;28;20053;-51
2022/08/01 06:20:46;;;;;;;69.13;6.63;;;;;;;;;;5015631;28;20141;-51
2022/08/01 06:23:15;;;;;;;8.60;1.92;;;;;;;;;;5030391;28;20057;-51
2022/08/01 06:25:42;;;;;;;37.88;4.60;;;;;;;;;;5031749;28;20054;-54
2022/08/01 06:28:08;;;;;;;5.68;1.63;;;;;;;;;;5034476;28;20654;-53
2022/08/01 06:30:43;;;;;;;18.80;1.88;;;;;;;;;;5026109;28;20084;-51
2022/08/01 06:33:12;;;;;;;2.35;1.00;;;;;;;;;;5022412;28;20053;-55
2022/08/01 06:35:40;;;;;;;3.15;1.08;;;;;;;;;;5029281;28;20753;-52
2022/08/01 06:40:47;;;;;;;4.80;1.10;;;;;;;;;;5017296;28;20059;-51
2022/08/01 06:43:15;;;;;;;6.55;1.77;;;;;;;;;;5035711;28;20120;-55
2022/08/01 06:45:43;;;;;;;8.07;1.38;;;;;;;;;;5036169;28;20046;-55
2022/08/01 06:48:26;;;;;;;11.50;1.95;;;;;;;;;;5035914;28;20382;-52
2022/08/01 06:51:15;;;;;;;5.85;1.20;;;;;;;;;;5030656;28;20060;-54
2022/08/01 06:53:43;;;;;;;21.73;2.42;;;;;;;;;;5035561;28;20064;-55
2022/08/01 06:56:09;;;;;;;7.13;1.30;;;;;;;;;;5035865;28;20072;-57
2022/08/01 06:58:38;;;;;;;2.53;1.08;;;;;;;;;;5035382;28;20073;-56
2022/08/01 07:01:06;;;;;;;5.72;1.27;;;;;;;;;;5035391;28;20424;-56
2022/08/01 07:03:36;;;;;;;4.65;1.65;;;;;;;;;;5035093;28;20057;-56
2022/08/01 07:06:06;;;;;;;7.25;1.40;;;;;;;;;;5035479;28;20490;-52
2022/08/01 07:08:33;;;;;;;8.45;1.73;;;;;;;;;;5035125;28;20065;-55
2022/08/01 07:11:01;;;;;;;6.05;1.48;;;;;;;;;;5035222;28;20053;-54
2022/08/01 07:13:30;;;;;;;13.98;1.75;;;;;;;;;;5035642;28;20128;-54
2022/08/01 07:16:00;;;;;;;4.38;1.23;;;;;;;;;;5033835;28;20081;-56
2022/08/01 07:18:28;;;;;;;13.55;1.60;;;;;;;;;;5034816;28;20169;-52
2022/08/01 07:20:57;;;;;;;20.35;1.92;;;;;;;;;;5035322;28;20049;-55
2022/08/01 07:23:34;;;;;;;7.35;1.42;;;;;;;;;;5034767;28;20064;-51
2022/08/01 07:26:06;;;;;;;4.70;1.10;;;;;;;;;;5015153;28;20054;-59
2022/08/01 07:28:35;;;;;;;5.97;1.20;;;;;;;;;;5034624;28;20053;-57
2022/08/01 07:31:03;;;;;;;5.00;1.23;;;;;;;;;;5035256;28;20057;-55
2022/08/01 07:33:33;;;;;;;25.27;3.40;;;;;;;;;;5035268;28;20390;-55
2022/08/01 07:36:01;;;;;;;9.48;1.40;;;;;;;;;;5035149;28;20053;-56
2022/08/01 07:38:36;;;;;;;4.95;1.10;;;;;;;;;;5034304;28;20049;-57
2022/08/01 07:41:05;;;;;;;2.10;1.00;;;;;;;;;;5028951;28;20049;-56
2022/08/01 07:43:31;;;;;;;7.65;1.83;;;;;;;;;;5034937;28;20053;-56
2022/08/01 07:46:00;;;;;;;1.77;0.80;;;;;;;;;;5035313;28;20057;-57
2022/08/01 07:48:36;;;;;;;3.88;0.93;;;;;;;;;;5034348;28;20053;-56
2022/08/01 07:51:03;;;;;;;1.60;1.00;;;;;;;;;;5035164;28;20053;-57
2022/08/01 07:53:34;;;;;;;4.78;1.48;;;;;;;;;;5034203;28;20144;-54
2022/08/01 07:56:05;;;;;;;3.38;1.00;;;;;;;;;;5034281;28;20553;-53
2022/08/01 07:58:35;;;;;;;3.80;1.20;;;;;;;;;;5033845;28;20049;-52
2022/08/01 08:01:05;;;;;;;1.75;1.00;;;;;;;;;;5034484;28;20059;-53
2022/08/01 08:03:33;;;;;;;3.00;0.90;;;;;;;;;;5033097;28;20061;-56
2022/08/01 08:06:01;;;;;;;3.97;1.00;;;;;;;;;;5027026;28;20049;-57
2022/08/01 08:08:30;;;;;;;6.30;0.95;;;;;;;;;;5033960;28;20519;-56
2022/08/01 08:11:14;;;;;;;2.92;1.10;;;;;;;;;;5034405;28;20053;-56
2022/08/01 08:13:40;;;;;;;5.97;1.00;;;;;;;;;;5026327;28;20056;-56
2022/08/01 08:16:07;;;;;;;10.77;1.25;;;;;;;;;;5030253;28;20053;-55
2022/08/01 08:18:36;;;;;;;4.72;0.80;;;;;;;;;;5034029;28;20050;-53
2022/08/01 08:21:03;;;;;;;5.15;0.88;;;;;;;;;;5034194;28;20064;-55
2022/08/01 08:26:16;;;;;;;2.42;0.70;;;;;;;;;;5031003;28;20045;-53
2022/08/01 08:28:46;;;;;;;2.85;1.00;;;;;;;;;;5033628;28;20049;-51
2022/08/01 08:31:15;;;;;;;3.65;1.10;;;;;;;;;;5034969;28;20053;-54
2022/08/01 08:33:46;;;;;;;1.65;0.75;;;;;;;;;;5034448;28;20049;-53
2022/08/01 08:36:19;;;;;;;2.45;0.77;;;;;;;;;;5034083;28;20139;-55
2022/08/01 08:38:48;;;;;;;7.55;0.90;;;;;;;;;;5034199;28;20505;-53
2022/08/01 08:41:16;;;;;;;3.28;0.90;;;;;;;;;;5034206;28;20069;-53
2022/08/01 08:43:42;;;;;;;6.97;1.00;;;;;;;;;;5034335;28;20258;-51
2022/08/01 08:46:11;;;;;;;22.95;2.97;;;;;;;;;;5033969;28;20141;-57
2022/08/01 08:48:49;;;;;;;2.25;0.90;;;;;;;;;;5029590;28;20066;-57
2022/08/01 08:51:26;;;;;;;14.23;2.20;;;;;;;;;;5033836;28;20063;-57
2022/08/01 08:53:55;;;;;;;3.05;1.10;;;;;;;;;;5033637;28;20466;-58
2022/08/01 08:56:29;;;;;;;10.95;1.23;;;;;;;;;;5032813;28;20053;-57
2022/08/01 08:59:00;;;;;;;;;;;;;;;;;;5034194;28;20057;-56
2022/08/01 09:01:35;;;;;;;692.42;72.30;;;;;;;;;;5032973;28;20348;-54
2022/08/01 09:04:03;;;;;;;9.80;1.90;;;;;;;;;;5032428;28;20091;-58
2022/08/01 09:06:34;;;;;;;13.13;2.10;;;;;;;;;;5032576;28;20077;-56
2022/08/01 09:09:01;;;;;;;6.32;1.23;;;;;;;;;;5032861;28;20077;-56
2022/08/01 09:11:28;;;;;;;3.50;0.90;;;;;;;;;;5033222;28;20104;-56
2022/08/01 09:14:09;;;;;;;4.00;1.50;;;;;;;;;;5032786;28;20077;-57
2022/08/01 09:16:36;;;;;;;11.30;2.00;;;;;;;;;;5029896;28;20077;-56
2022/08/01 09:19:14;;;;;;;4.43;1.10;;;;;;;;;;5032635;28;20365;-58
2022/08/01 09:22:01;;;;;;;5.10;0.90;;;;;;;;;;5032945;28;20060;-58
2022/08/01 09:24:28;;;;;;;4.80;1.02;;;;;;;;;;5032419;28;20057;-58
2022/08/01 09:27:05;;;;;;;2.97;1.15;;;;;;;;;;5032964;28;20599;-56
2022/08/01 09:29:33;;;;;;;3.47;0.80;;;;;;;;;;5032750;28;20549;-55
2022/08/01 09:32:08;;;;;;;4.70;0.95;;;;;;;;;;5032977;28;20060;-51
2022/08/01 09:34:35;;;;;;;4.20;0.90;;;;;;;;;;5032763;28;20049;-53
2022/08/01 09:37:13;;;;;;;6.40;0.90;;;;;;;;;;5032901;28;20474;-55
2022/08/01 09:39:45;;;;;;;4.00;1.27;;;;;;;;;;5032396;28;20525;-51
2022/08/01 09:42:34;;;;;;;2.67;0.80;;;;;;;;;;5032017;28;20055;-55
2022/08/01 09:45:04;;;;;;;23.85;2.00;;;;;;;;;;5032991;28;20552;-56
2022/08/01 09:47:39;;;;;;;11.30;2.65;;;;;;;;;;5033349;28;20057;-54
2022/08/01 09:50:06;;;;;;;5.25;1.20;;;;;;;;;;5032827;28;20050;-56
2022/08/01 09:52:36;;;;;;;34.95;3.65;;;;;;;;;;5031940;28;20076;-55
2022/08/01 09:55:07;;;;;;;4.93;1.42;;;;;;;;;;5032465;28;20381;-56
2022/08/01 09:57:44;;;;;;;5.28;1.50;;;;;;;;;;5031585;28;20056;-56
2022/08/01 10:00:19;;;;;;;3.05;1.17;;;;;;;;;;5032523;28;20068;-56
2022/08/01 10:02:50;;;;;;;2.97;1.27;;;;;;;;;;5031656;28;20053;-57
2022/08/01 10:05:20;;;;;;;6.72;1.30;;;;;;;;;;5032134;28;20057;-56
2022/08/01 10:08:00;;;;;;;2.13;1.30;;;;;;;;;;5031890;28;20534;-54
2022/08/01 10:10:27;;;;;;;3.85;1.27;;;;;;;;;;5028779;28;20053;-56
2022/08/01 10:13:11;;;;;;;4.03;1.08;;;;;;;;;;5031299;28;20041;-54
2022/08/01 10:15:38;;;;;;;3.85;1.02;;;;;;;;;;5031390;28;20049;-53
2022/08/01 10:18:09;;;;;;;8.10;1.10;;;;;;;;;;5032344;28;20049;-55
2022/08/01 10:20:39;;;;;;;5.97;1.48;;;;;;;;;;5032012;28;20517;-56
2022/08/01 10:23:07;;;;;;;5.38;1.80;;;;;;;;;;5031631;28;20053;-57
2022/08/01 10:25:39;;;;;;;3.58;1.30;;;;;;;;;;5032196;28;20053;-54
2022/08/01 10:28:11;;;;;;;3.15;1.20;;;;;;;;;;5031952;28;20513;-53
2022/08/01 10:30:42;;;;;;;4.07;1.30;;;;;;;;;;5032035;28;20048;-52
2022/08/01 10:33:19;;;;;;;4.22;1.63;;;;;;;;;;5026814;28;20041;-54
2022/08/01 10:35:47;;;;;;;3.42;1.05;;;;;;;;;;5032187;28;20152;-57
2022/08/01 10:38:14;;;;;;;2.72;1.20;;;;;;;;;;5031540;28;20061;-56
2022/08/01 10:40:43;;;;;;;2.92;0.90;;;;;;;;;;5031217;28;20525;-53
2022/08/01 10:43:14;;;;;;;3.65;1.25;;;;;;;;;;5032067;28;20080;-56
2022/08/01 10:45:51;;;;;;;1.75;1.10;;;;;;;;;;5020197;28;20467;-55
2022/08/01 10:48:33;;;;;;;3.60;1.20;;;;;;;;;;5029565;28;20132;-53
2022/08/01 10:51:02;;;;;;;5.63;1.15;;;;;;;;;;5031627;28;20076;-55
2022/08/01 10:53:32;;;;;;;5.05;1.20;;;;;;;;;;5031559;28;20049;-55
2022/08/01 10:56:02;;;;;;;7.18;1.50;;;;;;;;;;5031618;28;20356;-56
2022/08/01 10:58:36;;;;;;;5.95;1.40;;;;;;;;;;5031490;28;20068;-55
2022/08/01 11:01:18;;;;;;;10.73;1.60;;;;;;;;;;5031157;28;20642;-55
2022/08/01 11:03:45;;;;;;;3.53;1.13;;;;;;;;;;5030694;28;20061;-54
2022/08/01 11:06:18;;;;;;;5.80;1.10;;;;;;;;;;5032078;28;20067;-52
2022/08/01 11:08:52;;;;;;;3.95;1.23;;;;;;;;;;5031629;28;20050;-53
2022/08/01 11:11:22;;;;;;;8.30;1.50;;;;;;;;;;5030911;28;20053;-51
2022/08/01 11:14:11;;;;;;;3.33;1.10;;;;;;;;;;5031777;28;20042;-54
2022/08/01 11:16:41;;;;;;;6.22;1.25;;;;;;;;;;5030054;28;20630;-56
2022/08/01 11:19:10;;;;;;;5.28;1.17;;;;;;;;;;5029617;28;20057;-55
2022/08/01 11:22:05;;;;;;;3.50;0.98;;;;;;;;;;5031399;28;20064;-56
2022/08/01 11:24:34;;;;;;;;;;;;;;;;;;5031462;28;20529;-55
2022/08/01 11:27:18;;;;;;;5.97;1.50;;;;;;;;;;5023784;28;19931;-56
2022/08/01 11:30:25;;;;;;;3.50;1.27;;;;;;;;;;5034047;28;20053;-56
2022/08/01 11:32:52;;;;;;;2.28;0.93;;;;;;;;;;5035898;28;20146;-57
2022/08/01 11:35:20;;;;;;;7.63;1.13;;;;;;;;;;5035349;28;20050;-56
2022/08/01 11:37:48;;;;;;;3.70;0.90;;;;;;;;;;5033245;28;20072;-55
2022/08/01 11:40:18;;;;;;;5.13;1.10;;;;;;;;;;5033756;28;20477;-55
2022/08/01 11:42:44;;;;;;;4.55;1.02;;;;;;;;;;5035326;28;20140;-56
2022/08/01 11:45:49;;;;;;;3.15;1.20;;;;;;;;;;5035235;28;20055;-56
2022/08/01 11:48:23;;;;;;;6.63;1.90;;;;;;;;;;5034193;28;20120;-56
2022/08/01 11:50:51;;;;;;;2.80;1.00;;;;;;;;;;5035010;28;20053;-56
2022/08/01 11:53:19;;;;;;;4.25;1.30;;;;;;;;;;5034580;28;20046;-55
2022/08/01 11:55:57;;;;;;;2.88;1.30;;;;;;;;;;5034839;28;20768;-55
2022/08/01 11:58:26;;;;;;;4.63;1.20;;;;;;;;;;5033584;28;20128;-56
2022/08/01 12:00:57;;;;;;;4.05;1.20;;;;;;;;;;5034756;28;20087;-55
2022/08/01 12:03:31;;;;;;;26.33;2.60;;;;;;;;;;5032395;28;20049;-56
2022/08/01 12:05:58;;;;;;;;;;;;;;;;;;5033321;28;20060;-55
2022/08/01 12:08:32;;;;;;;7.88;1.50;;;;;;;;;;5034121;28;19925;-52
2022/08/01 12:11:08;;;;;;;9.02;1.63;;;;;;;;;;5034517;28;20059;-57
2022/08/01 12:13:46;;;;;;;2.42;1.20;;;;;;;;;;5033547;28;20049;-56
2022/08/01 12:16:28;;;;;;;3.00;1.10;;;;;;;;;;5034456;28;20415;-59
2022/08/01 12:18:56;;;;;;;4.50;1.23;;;;;;;;;;5029872;28;20786;-58
2022/08/01 12:21:38;;;;;;;12.23;2.47;;;;;;;;;;5025809;28;20053;-58
2022/08/01 12:24:05;;;;;;;5.05;1.55;;;;;;;;;;5034678;28;20134;-57
2022/08/01 12:26:41;;;;;;;2.65;0.88;;;;;;;;;;5034140;28;20080;-53
2022/08/01 12:29:09;;;;;;;3.15;1.10;;;;;;;;;;5040752;28;20049;-56
2022/08/01 12:31:42;;;;;;;5.35;1.40;;;;;;;;;;5034182;28;20053;-56
2022/08/01 12:34:33;;;;;;;4.40;1.05;;;;;;;;;;5034073;28;20060;-57
2022/08/01 12:37:02;;;;;;;2.78;1.23;;;;;;;;;;5031265;28;20053;-53
2022/08/01 12:39:38;;;;;;;3.95;1.10;;;;;;;;;;5029041;28;20123;-59
2022/08/01 12:42:07;;;;;;;3.85;1.23;;;;;;;;;;5031470;28;20142;-57
2022/08/01 12:44:35;;;;;;;6.65;1.40;;;;;;;;;;5029039;28;20053;-58
2022/08/01 12:47:13;;;;;;;2.45;0.90;;;;;;;;;;5029156;28;20140;-56
2022/08/01 12:49:41;;;;;;;4.05;1.20;;;;;;;;;;5032735;28;20179;-58
2022/08/01 12:52:09;;;;;;;2.45;1.00;;;;;;;;;;5029336;28;20435;-58
2022/08/01 12:54:55;;;;;;;2.55;1.00;;;;;;;;;;5028998;28;20388;-53
2022/08/01 12:57:25;;;;;;;17.90;1.92;;;;;;;;;;5033610;28;20073;-58
2022/08/01 12:59:56;;;;;;;5.40;1.33;;;;;;;;;;5034456;28;20053;-57
2022/08/01 13:02:38;;;;;;;3.00;1.30;;;;;;;;;;5033447;28;20148;-56
2022/08/01 13:05:10;;;;;;;7.00;1.17;;;;;;;;;;5033189;28;20049;-57
2022/08/01 13:07:43;;;;;;;2.55;1.15;;;;;;;;;;5034259;28;20076;-58
2022/08/01 13:10:19;;;;;;;2.30;1.20;;;;;;;;;;5034678;28;20053;-58
2022/08/01 13:12:54;;;;;;;3.42;1.20;;;;;;;;;;5033860;28;20077;-58
2022/08/01 13:15:39;;;;;;;2.47;0.90;;;;;;;;;;5033484;28;20052;-59
2022/08/01 13:18:23;;;;;;;4.15;1.13;;;;;;;;;;5033556;28;20069;-58
2022/08/01 13:21:08;;;;;;;4.83;0.90;;;;;;;;;;5031728;28;20523;-58
2022/08/01 13:23:36;;;;;;;2.85;1.10;;;;;;;;;;5033058;28;20053;-57
2022/08/01 13:26:04;;;;;;;4.50;1.20;;;;;;;;;;5033590;28;20055;-56
2022/08/01 13:28:36;;;;;;;2.78;1.10;;;;;;;;;;5033640;28;20131;-55
2022/08/01 13:31:04;;;;;;;3.30;1.27;;;;;;;;;;5028326;28;20132;-55
2022/08/01 13:33:42;;;;;;;2.17;0.98;;;;;;;;;;5032604;28;20390;-56
2022/08/01 13:36:18;;;;;;;3.25;0.90;;;;;;;;;;5033422;28;20060;-56
2022/08/01 13:41:34;;;;;;;2.75;0.90;;;;;;;;;;5031611;28;20059;-54
2022/08/01 13:44:04;;;;;;;4.20;1.15;;;;;;;;;;5032202;28;20042;-57
2022/08/01 13:46:32;;;;;;;4.03;1.30;;;;;;;;;;5029252;28;20111;-57
2022/08/01 13:49:01;;;;;;;5.60;1.48;;;;;;;;;;5022374;28;20128;-54
2022/08/01 13:51:32;;;;;;;3.83;1.27;;;;;;;;;;5022649;28;20132;-57
2022/08/01 13:54:08;;;;;;;2.90;1.10;;;;;;;;;;5026744;28;20049;-58
2022/08/01 13:56:38;;;;;;;1.70;1.10;;;;;;;;;;5023646;28;20382;-58
2022/08/01 13:59:06;;;;;;;2.03;1.20;;;;;;;;;;5032492;28;20050;-58
2022/08/01 14:01:35;;;;;;;4.10;0.93;;;;;;;;;;5031626;28;20068;-57
2022/08/01 14:04:02;;;;;;;4.07;1.05;;;;;;;;;;5027984;28;20061;-57
2022/08/01 14:06:31;;;;;;;10.02;1.40;;;;;;;;;;5032262;28;20143;-52
2022/08/01 14:08:58;;;;;;;2.30;0.93;;;;;;;;;;5032350;28;20152;-58
2022/08/01 14:11:36;;;;;;;10.27;1.25;;;;;;;;;;5031313;28;20474;-57
2022/08/01 14:14:06;;;;;;;2.88;1.00;;;;;;;;;;5031719;28;20542;-58
2022/08/01 14:16:34;;;;;;;5.45;1.20;;;;;;;;;;5026168;28;20042;-53
2022/08/01 14:19:04;;;;;;;3.08;1.50;;;;;;;;;;5032383;28;20061;-57
2022/08/01 14:21:34;;;;;;;2.30;0.90;;;;;;;;;;5021056;28;20459;-57
2022/08/01 14:24:02;;;;;;;3.20;1.15;;;;;;;;;;5032239;28;20041;-56
2022/08/01 14:26:40;;;;;;;4.13;1.02;;;;;;;;;;5031350;28;20057;-55
2022/08/01 14:29:09;;;;;;;4.60;1.00;;;;;;;;;;5031490;28;20077;-55
2022/08/01 14:31:39;;;;;;;2.85;1.30;;;;;;;;;;5030642;28;20115;-55
2022/08/01 14:34:07;;;;;;;4.03;1.02;;;;;;;;;;5032344;28;20045;-57
2022/08/01 14:36:33;;;;;;;4.18;1.20;;;;;;;;;;5031674;28;20462;-57
2022/08/01 14:39:00;;;;;;;15.27;1.70;;;;;;;;;;5020855;28;20045;-57
2022/08/01 14:41:27;;;;;;;31.38;2.65;;;;;;;;;;5021234;28;20054;-57
2022/08/01 14:43:59;;;;;;;3.13;1.20;;;;;;;;;;5032219;28;20049;-54
2022/08/01 14:46:28;;;;;;;2.65;1.00;;;;;;;;;;5032229;28;20057;-54
2022/08/01 14:48:54;;;;;;;2.35;1.38;;;;;;;;;;5031145;28;20387;-56
2022/08/01 14:51:23;;;;;;;3.00;0.90;;;;;;;;;;5031369;28;20052;-55
2022/08/01 14:53:52;;;;;;;1.95;0.88;;;;;;;;;;5031641;28;20390;-56
2022/08/01 14:56:22;;;;;;;2.85;0.90;;;;;;;;;;5031413;28;20476;-57
2022/08/01 14:58:52;;;;;;;4.20;1.25;;;;;;;;;;5030909;28;20045;-56
2022/08/01 15:01:24;;;;;;;3.55;1.08;;;;;;;;;;5031302;28;20068;-56
2022/08/01 15:03:51;;;;;;;6.43;1.42;;;;;;;;;;5024749;28;20058;-55
2022/08/01 15:06:17;;;;;;;4.03;1.30;;;;;;;;;;5034465;28;20455;-55
2022/08/01 15:08:44;;;;;;;3.92;1.15;;;;;;;;;;5035119;28;20108;-57
2022/08/01 15:11:13;;;;;;;4.07;1.30;;;;;;;;;;5034672;28;20045;-53
2022/08/01 15:13:39;;;;;;;3.13;1.23;;;;;;;;;;5036559;28;20053;-53
2022/08/01 15:16:07;;;;;;;5.50;1.52;;;;;;;;;;5037050;28;20437;-54
2022/08/01 15:18:36;;;;;;;2.95;1.13;;;;;;;;;;5035701;28;20425;-56
2022/08/01 15:21:02;;;;;;;4.50;1.17;;;;;;;;;;5035386;28;20056;-55
2022/08/01 15:23:29;;;;;;;5.07;1.27;;;;;;;;;;5035771;28;20393;-54
2022/08/01 15:25:55;;;;;;;9.35;1.70;;;;;;;;;;5036007;28;20064;-55
2022/08/01 15:28:26;;;;;;;3.88;1.35;;;;;;;;;;5029919;28;20054;-57